createdAt,value
2023-05-23T00:00:41.748Z,0.00
2023-05-23T00:01:41.959Z,0.00
2023-05-23T00:02:42.354Z,0.00
2023-05-23T00:03:42.354Z,0.00
2023-05-23T00:04:42.461Z,0.00
2023-05-23T00:05:42.710Z,0.00
2023-05-23T00:06:42.810Z,0.00
2023-05-23T00:07:42.982Z,0.00
2023-05-23T00:08:43.125Z,0.00
2023-05-23T00:09:43.325Z,0.00
2023-05-23T00:10:43.493Z,0.00
2023-05-23T00:11:43.650Z,0.00
2023-05-23T00:12:43.830Z,0.00
2023-05-23T00:13:44.010Z,0.00
2023-05-23T00:14:44.176Z,0.00
2023-05-23T00:15:44.350Z,0.00
2023-05-23T00:16:44.557Z,0.00
2023-05-23T00:17:44.819Z,0.00
2023-05-23T00:18:44.864Z,0.00
2023-05-23T00:19:45.042Z,0.00
2023-05-23T00:20:45.216Z,0.00
2023-05-23T00:21:45.387Z,0.00
2023-05-23T00:22:45.544Z,0.00
2023-05-23T00:23:45.740Z,0.00
2023-05-23T00:24:45.898Z,0.00
2023-05-23T00:25:46.106Z,0.00
2023-05-23T00:26:46.267Z,0.00
2023-05-23T00:27:46.445Z,0.00
2023-05-23T00:28:46.616Z,0.00
2023-05-23T00:29:46.822Z,0.00
2023-05-23T00:30:47.151Z,0.00
2023-05-23T00:31:47.484Z,0.00
2023-05-23T00:32:47.362Z,0.00
2023-05-23T00:33:47.480Z,0.00
2023-05-23T00:34:47.675Z,0.00
2023-05-23T00:35:47.811Z,0.00
2023-05-23T00:36:48.332Z,0.00
2023-05-23T00:37:48.146Z,0.00
2023-05-23T00:38:48.392Z,0.00
2023-05-23T00:39:48.529Z,0.00
2023-05-23T00:40:48.723Z,0.00
2023-05-23T00:41:51.486Z,0.00
2023-05-23T00:42:49.049Z,0.00
2023-05-23T00:43:49.213Z,0.00
2023-05-23T00:44:49.411Z,0.00
2023-05-23T00:45:49.593Z,0.00
2023-05-23T00:46:50.023Z,0.00
2023-05-23T00:47:50.075Z,0.00
2023-05-23T00:48:50.132Z,0.00
2023-05-23T00:49:50.281Z,0.00
2023-05-23T00:50:50.476Z,0.00
2023-05-23T00:51:50.648Z,0.00
2023-05-23T00:52:50.828Z,0.00
2023-05-23T00:53:51.019Z,0.00
2023-05-23T00:54:51.176Z,0.00
2023-05-23T00:55:51.383Z,0.00
2023-05-23T00:56:51.578Z,0.00
2023-05-23T00:57:51.708Z,0.00
2023-05-23T00:58:51.931Z,0.00
2023-05-23T00:59:52.074Z,0.00
2023-05-23T01:00:52.241Z,0.00
2023-05-23T01:01:52.448Z,0.00
2023-05-23T01:02:52.734Z,0.00
2023-05-23T01:03:52.846Z,0.00
2023-05-23T01:04:52.958Z,0.00
2023-05-23T01:05:53.129Z,0.00
2023-05-23T01:06:53.281Z,0.00
2023-05-23T01:07:53.474Z,0.00
2023-05-23T01:08:53.645Z,0.00
2023-05-23T01:09:53.818Z,0.00
2023-05-23T01:10:53.974Z,0.00
2023-05-23T01:11:54.141Z,0.00
2023-05-23T01:12:54.331Z,0.00
2023-05-23T01:13:54.492Z,0.00
2023-05-23T01:14:54.658Z,0.00
2023-05-23T01:15:54.857Z,0.00
2023-05-23T01:16:55.078Z,0.00
2023-05-23T01:17:55.256Z,0.00
2023-05-23T01:18:55.492Z,0.00
2023-05-23T01:19:55.562Z,0.00
2023-05-23T01:20:55.743Z,0.00
2023-05-23T01:21:55.888Z,0.00
2023-05-23T01:22:56.075Z,0.00
2023-05-23T01:23:56.233Z,0.00
2023-05-23T01:24:56.397Z,0.00
2023-05-23T01:25:56.580Z,0.00
2023-05-23T01:26:56.762Z,0.00
2023-05-23T01:27:57.000Z,0.00
2023-05-23T01:28:57.154Z,0.00
2023-05-23T01:29:57.323Z,0.00
2023-05-23T01:30:57.462Z,0.00
2023-05-23T01:31:57.677Z,0.00
2023-05-23T01:32:57.879Z,0.00
2023-05-23T01:33:58.004Z,0.00
2023-05-23T01:34:58.218Z,0.00
2023-05-23T01:35:58.380Z,0.00
2023-05-23T01:36:58.568Z,0.00
2023-05-23T01:37:58.727Z,0.00
2023-05-23T01:38:58.898Z,0.00
2023-05-23T01:39:59.058Z,0.00
2023-05-23T01:40:59.314Z,0.00
2023-05-23T01:41:59.423Z,0.00
2023-05-23T01:42:59.592Z,0.00
2023-05-23T01:43:59.741Z,0.00
2023-05-23T01:44:59.956Z,0.00
2023-05-23T01:46:00.172Z,0.00
2023-05-23T01:47:00.251Z,0.00
2023-05-23T01:48:00.488Z,0.00
2023-05-23T01:49:00.626Z,0.00
2023-05-23T01:50:00.798Z,0.00
2023-05-23T01:51:00.989Z,0.00
2023-05-23T01:52:01.144Z,0.00
2023-05-23T01:53:01.421Z,0.00
2023-05-23T01:54:01.490Z,0.00
2023-05-23T01:55:01.724Z,0.00
2023-05-23T01:56:01.850Z,0.00
2023-05-23T01:57:02.048Z,0.00
2023-05-23T01:58:02.238Z,0.00
2023-05-23T01:59:02.409Z,0.00
2023-05-23T02:00:02.601Z,0.00
2023-05-23T02:01:02.795Z,0.00
2023-05-23T02:02:02.966Z,0.00
2023-05-23T02:03:03.196Z,0.00
2023-05-23T02:04:03.301Z,0.00
2023-05-23T02:05:03.459Z,0.00
2023-05-23T02:06:03.630Z,0.00
2023-05-23T02:07:03.785Z,0.00
2023-05-23T02:08:03.962Z,0.00
2023-05-23T02:09:04.137Z,0.00
2023-05-23T02:10:04.310Z,0.00
2023-05-23T02:11:04.465Z,0.00
2023-05-23T02:12:04.637Z,0.00
2023-05-23T02:13:04.828Z,0.00
2023-05-23T02:14:04.974Z,0.00
2023-05-23T02:15:05.156Z,0.00
2023-05-23T02:16:05.318Z,0.00
2023-05-23T02:17:05.541Z,0.00
2023-05-23T02:18:05.671Z,0.00
2023-05-23T02:19:05.861Z,0.00
2023-05-23T02:20:06.010Z,0.00
2023-05-23T02:21:06.192Z,0.00
2023-05-23T02:22:06.344Z,0.00
2023-05-23T02:23:06.539Z,0.00
2023-05-23T02:24:06.755Z,0.00
2023-05-23T02:25:06.908Z,0.00
2023-05-23T02:26:07.069Z,0.00
2023-05-23T02:27:07.259Z,0.00
2023-05-23T02:28:07.435Z,0.00
2023-05-23T02:29:07.597Z,0.00
2023-05-23T02:30:07.765Z,0.00
2023-05-23T02:31:07.983Z,0.00
2023-05-23T02:32:08.115Z,0.00
2023-05-23T02:33:08.362Z,0.00
2023-05-23T02:34:08.453Z,0.00
2023-05-23T02:35:08.628Z,0.00
2023-05-23T02:36:08.822Z,0.00
2023-05-23T02:37:09.003Z,0.00
2023-05-23T02:38:09.152Z,0.00
2023-05-23T02:39:09.339Z,0.00
2023-05-23T02:40:09.488Z,0.00
2023-05-23T02:41:09.700Z,0.00
2023-05-23T02:42:09.859Z,0.00
2023-05-23T02:43:10.059Z,0.00
2023-05-23T02:44:10.222Z,0.00
2023-05-23T02:45:10.451Z,0.00
2023-05-23T02:46:10.663Z,0.00
2023-05-23T02:47:10.776Z,0.00
2023-05-23T02:48:10.949Z,0.00
2023-05-23T02:49:11.136Z,0.00
2023-05-23T02:50:11.307Z,0.00
2023-05-23T02:51:11.487Z,0.00
2023-05-23T02:52:11.652Z,0.00
2023-05-23T02:53:11.849Z,0.00
2023-05-23T02:54:12.020Z,0.00
2023-05-23T02:55:12.172Z,0.00
2023-05-23T02:56:12.313Z,0.00
2023-05-23T02:57:12.500Z,0.00
2023-05-23T02:58:12.674Z,0.00
2023-05-23T02:59:12.850Z,0.00
2023-05-23T03:00:13.049Z,0.00
2023-05-23T03:01:13.197Z,0.00
2023-05-23T03:02:13.467Z,0.00
2023-05-23T03:03:13.719Z,0.00
2023-05-23T03:04:13.755Z,0.00
2023-05-23T03:05:14.001Z,0.00
2023-05-23T03:06:14.128Z,0.00
2023-05-23T03:07:24.488Z,0.00
2023-05-23T03:08:15.459Z,0.00
2023-05-23T03:09:14.719Z,0.00
2023-05-23T03:10:14.904Z,5.62
2023-05-23T03:11:15.061Z,5.62
2023-05-23T03:12:15.232Z,5.62
2023-05-23T03:13:15.403Z,0.00
2023-05-23T03:14:15.589Z,5.62
2023-05-23T03:15:15.768Z,5.62
2023-05-23T03:16:15.965Z,5.62
2023-05-23T03:17:16.143Z,5.62
2023-05-23T03:18:16.347Z,5.62
2023-05-23T03:19:16.536Z,5.62
2023-05-23T03:20:16.665Z,5.62
2023-05-23T03:21:16.809Z,5.62
2023-05-23T03:22:16.996Z,5.62
2023-05-23T03:23:17.177Z,5.62
2023-05-23T03:24:17.332Z,5.62
2023-05-23T03:25:17.469Z,5.62
2023-05-23T03:26:17.670Z,5.62
2023-05-23T03:27:17.856Z,5.62
2023-05-23T03:28:18.050Z,5.62
2023-05-23T03:29:18.211Z,5.62
2023-05-23T03:30:18.405Z,5.62
2023-05-23T03:31:18.569Z,5.62
2023-05-23T03:32:18.770Z,5.62
2023-05-23T03:33:18.948Z,5.62
2023-05-23T03:34:19.071Z,5.62
2023-05-23T03:35:19.265Z,5.62
2023-05-23T03:36:19.416Z,5.62
2023-05-23T03:37:19.602Z,5.62
2023-05-23T03:38:19.759Z,5.62
2023-05-23T03:39:19.954Z,5.62
2023-05-23T03:40:20.138Z,5.62
2023-05-23T03:41:20.337Z,5.62
2023-05-23T03:42:20.500Z,5.62
2023-05-23T03:43:20.644Z,5.62
2023-05-23T03:44:20.849Z,11.25
2023-05-23T03:45:21.015Z,11.25
2023-05-23T03:46:21.233Z,11.25
2023-05-23T03:47:21.360Z,11.25
2023-05-23T03:48:21.533Z,11.25
2023-05-23T03:49:21.719Z,11.25
2023-05-23T03:50:21.909Z,16.88
2023-05-23T03:51:22.113Z,16.88
2023-05-23T03:52:22.248Z,22.50
2023-05-23T03:53:22.439Z,22.50
2023-05-23T03:54:22.613Z,22.50
2023-05-23T03:55:22.787Z,28.12
2023-05-23T03:56:22.950Z,28.12
2023-05-23T03:57:23.123Z,28.12
2023-05-23T03:58:23.293Z,28.12
2023-05-23T03:59:23.479Z,28.12
2023-05-23T04:00:23.681Z,28.12
2023-05-23T04:01:23.864Z,28.12
2023-05-23T04:02:24.081Z,28.12
2023-05-23T04:03:24.253Z,28.12
2023-05-23T04:04:24.435Z,28.12
2023-05-23T04:05:24.578Z,28.12
2023-05-23T04:06:24.700Z,28.12
2023-05-23T04:07:24.874Z,28.12
2023-05-23T04:08:25.048Z,28.12
2023-05-23T04:09:25.223Z,28.12
2023-05-23T04:10:25.444Z,28.12
2023-05-23T04:11:25.585Z,33.75
2023-05-23T04:12:25.756Z,33.75
2023-05-23T04:13:25.939Z,39.38
2023-05-23T04:14:26.129Z,39.38
2023-05-23T04:15:26.312Z,45.00
2023-05-23T04:16:26.588Z,45.00
2023-05-23T04:17:26.670Z,45.00
2023-05-23T04:18:26.848Z,45.00
2023-05-23T04:19:27.157Z,45.00
2023-05-23T04:20:27.243Z,45.00
2023-05-23T04:21:27.303Z,45.00
2023-05-23T04:22:27.501Z,45.00
2023-05-23T04:23:27.686Z,45.00
2023-05-23T04:24:27.873Z,45.00
2023-05-23T04:25:28.050Z,45.00
2023-05-23T04:26:28.176Z,45.00
2023-05-23T04:27:28.359Z,45.00
2023-05-23T04:28:28.550Z,45.00
2023-05-23T04:29:28.720Z,45.00
2023-05-23T04:30:28.898Z,45.00
2023-05-23T04:31:29.111Z,45.00
2023-05-23T04:32:29.286Z,50.62
2023-05-23T04:33:29.433Z,50.62
2023-05-23T04:34:29.635Z,50.62
2023-05-23T04:35:29.805Z,56.25
2023-05-23T04:36:29.928Z,56.25
2023-05-23T04:37:30.102Z,50.62
2023-05-23T04:38:30.283Z,50.62
2023-05-23T04:39:30.486Z,45.00
2023-05-23T04:40:30.659Z,45.00
2023-05-23T04:41:30.906Z,45.00
2023-05-23T04:42:31.043Z,45.00
2023-05-23T04:43:31.232Z,45.00
2023-05-23T04:44:31.380Z,45.00
2023-05-23T04:45:31.575Z,45.00
2023-05-23T04:46:31.753Z,45.00
2023-05-23T04:47:31.922Z,50.62
2023-05-23T04:48:32.088Z,50.62
2023-05-23T04:49:32.265Z,50.62
2023-05-23T04:50:32.472Z,56.25
2023-05-23T04:51:32.626Z,61.88
2023-05-23T04:52:32.799Z,73.12
2023-05-23T04:53:32.969Z,73.12
2023-05-23T04:54:33.153Z,73.12
2023-05-23T04:55:33.325Z,67.50
2023-05-23T04:56:33.496Z,67.50
2023-05-23T04:57:33.657Z,61.88
2023-05-23T04:58:33.836Z,61.88
2023-05-23T04:59:34.019Z,61.88
2023-05-23T05:00:34.215Z,56.25
2023-05-23T05:01:34.546Z,56.25
2023-05-23T05:02:34.615Z,56.25
2023-05-23T05:03:34.776Z,61.88
2023-05-23T05:04:34.927Z,61.88
2023-05-23T05:05:35.071Z,67.50
2023-05-23T05:06:35.258Z,67.50
2023-05-23T05:07:35.430Z,67.50
2023-05-23T05:08:35.588Z,67.50
2023-05-23T05:09:35.773Z,67.50
2023-05-23T05:10:35.938Z,67.50
2023-05-23T05:11:36.099Z,61.88
2023-05-23T05:12:36.270Z,61.88
2023-05-23T05:13:36.465Z,61.88
2023-05-23T05:14:36.681Z,56.25
2023-05-23T05:15:36.830Z,56.25
2023-05-23T05:16:37.033Z,56.25
2023-05-23T05:17:37.258Z,56.25
2023-05-23T05:18:37.355Z,56.25
2023-05-23T05:19:37.648Z,56.25
2023-05-23T05:20:37.752Z,50.62
2023-05-23T05:21:37.914Z,50.62
2023-05-23T05:22:38.102Z,45.00
2023-05-23T05:23:38.279Z,45.00
2023-05-23T05:24:38.487Z,45.00
2023-05-23T05:25:38.650Z,45.00
2023-05-23T05:26:38.831Z,45.00
2023-05-23T05:27:38.995Z,50.62
2023-05-23T05:28:39.177Z,56.25
2023-05-23T05:29:39.360Z,56.25
2023-05-23T05:30:39.718Z,56.25
2023-05-23T05:31:39.721Z,56.25
2023-05-23T05:32:39.929Z,61.88
2023-05-23T05:33:40.062Z,61.88
2023-05-23T05:34:40.242Z,61.88
2023-05-23T05:35:40.431Z,61.88
2023-05-23T05:36:40.577Z,67.50
2023-05-23T05:37:40.760Z,73.12
2023-05-23T05:38:40.952Z,78.75
2023-05-23T05:39:41.084Z,90.00
2023-05-23T05:40:41.467Z,101.25
2023-05-23T05:41:41.438Z,112.50
2023-05-23T05:42:41.665Z,118.12
2023-05-23T05:43:41.809Z,112.50
2023-05-23T05:44:42.019Z,106.88
2023-05-23T05:45:42.195Z,106.88
2023-05-23T05:46:42.506Z,101.25
2023-05-23T05:47:42.561Z,101.25
2023-05-23T05:48:42.745Z,101.25
2023-05-23T05:49:42.954Z,101.25
2023-05-23T05:50:43.265Z,101.25
2023-05-23T05:51:43.285Z,95.62
2023-05-23T05:52:43.478Z,106.88
2023-05-23T05:53:43.648Z,106.88
2023-05-23T05:54:43.857Z,112.50
2023-05-23T05:55:44.000Z,118.12
2023-05-23T05:56:44.428Z,123.75
2023-05-23T05:57:44.363Z,146.25
2023-05-23T05:58:44.538Z,180.00
2023-05-23T05:59:44.731Z,225.00
2023-05-23T06:00:44.919Z,275.62
2023-05-23T06:01:45.111Z,315.00
2023-05-23T06:02:45.384Z,343.12
2023-05-23T06:03:45.806Z,360.00
2023-05-23T06:04:45.685Z,365.62
2023-05-23T06:05:45.792Z,371.25
2023-05-23T06:06:45.976Z,382.50
2023-05-23T06:07:46.142Z,405.00
2023-05-23T06:08:46.370Z,421.88
2023-05-23T06:09:46.496Z,421.88
2023-05-23T06:10:46.682Z,410.62
2023-05-23T06:11:46.954Z,393.75
2023-05-23T06:12:47.072Z,376.88
2023-05-23T06:13:47.234Z,365.62
2023-05-23T06:14:47.437Z,354.38
2023-05-23T06:15:47.604Z,343.12
2023-05-23T06:16:47.850Z,326.25
2023-05-23T06:17:47.922Z,320.62
2023-05-23T06:18:48.142Z,326.25
2023-05-23T06:19:48.269Z,331.88
2023-05-23T06:20:48.482Z,326.25
2023-05-23T06:21:48.635Z,303.75
2023-05-23T06:22:48.808Z,286.88
2023-05-23T06:23:48.981Z,264.38
2023-05-23T06:24:50.319Z,241.88
2023-05-23T06:25:49.344Z,225.00
2023-05-23T06:26:49.529Z,213.75
2023-05-23T06:27:49.676Z,202.50
2023-05-23T06:28:49.861Z,196.88
2023-05-23T06:29:50.030Z,196.88
2023-05-23T06:30:50.214Z,196.88
2023-05-23T06:31:50.449Z,196.88
2023-05-23T06:32:50.635Z,191.25
2023-05-23T06:33:50.753Z,196.88
2023-05-23T06:34:50.946Z,196.88
2023-05-23T06:35:51.091Z,196.88
2023-05-23T06:36:51.287Z,185.62
2023-05-23T06:37:51.417Z,180.00
2023-05-23T06:38:51.610Z,174.38
2023-05-23T06:39:51.819Z,174.38
2023-05-23T06:40:51.961Z,191.25
2023-05-23T06:41:52.125Z,219.38
2023-05-23T06:42:52.306Z,241.88
2023-05-23T06:43:52.512Z,258.75
2023-05-23T06:44:52.684Z,264.38
2023-05-23T06:45:52.843Z,270.00
2023-05-23T06:46:53.007Z,258.75
2023-05-23T06:47:53.269Z,258.75
2023-05-23T06:49:02.547Z,264.38
2023-05-23T06:49:54.507Z,270.00
2023-05-23T06:50:53.716Z,264.38
2023-05-23T06:51:54.034Z,253.12
2023-05-23T06:52:54.028Z,253.12
2023-05-23T06:53:54.225Z,264.38
2023-05-23T06:54:54.412Z,275.62
2023-05-23T06:55:54.579Z,292.50
2023-05-23T06:56:54.766Z,298.12
2023-05-23T06:57:54.963Z,275.62
2023-05-23T06:58:55.118Z,258.75
2023-05-23T06:59:55.305Z,253.12
2023-05-23T07:00:55.426Z,264.38
2023-05-23T07:01:55.640Z,286.88
2023-05-23T07:02:55.847Z,292.50
2023-05-23T07:03:55.982Z,275.62
2023-05-23T07:04:56.139Z,253.12
2023-05-23T07:05:56.463Z,247.50
2023-05-23T07:06:56.496Z,253.12
2023-05-23T07:07:56.699Z,258.75
2023-05-23T07:08:56.851Z,258.75
2023-05-23T07:09:57.006Z,264.38
2023-05-23T07:10:57.196Z,264.38
2023-05-23T07:11:57.368Z,275.62
2023-05-23T07:12:57.542Z,281.25
2023-05-23T07:13:57.658Z,275.62
2023-05-23T07:14:57.838Z,270.00
2023-05-23T07:15:58.029Z,275.62
2023-05-23T07:16:58.307Z,281.25
2023-05-23T07:17:58.376Z,292.50
2023-05-23T07:18:58.562Z,315.00
2023-05-23T07:19:58.729Z,348.75
2023-05-23T07:20:58.959Z,399.38
2023-05-23T07:21:59.073Z,438.75
2023-05-23T07:22:59.245Z,461.25
2023-05-23T07:23:59.416Z,461.25
2023-05-23T07:24:59.643Z,455.62
2023-05-23T07:26:02.941Z,455.62
2023-05-23T07:26:59.980Z,461.25
2023-05-23T07:28:00.128Z,461.25
2023-05-23T07:29:00.303Z,472.50
2023-05-23T07:30:00.514Z,506.25
2023-05-23T07:31:00.753Z,523.12
2023-05-23T07:32:00.856Z,540.00
2023-05-23T07:33:01.116Z,556.88
2023-05-23T07:34:01.212Z,579.38
2023-05-23T07:35:01.464Z,618.75
2023-05-23T07:36:01.602Z,652.50
2023-05-23T07:37:01.809Z,652.50
2023-05-23T07:38:01.953Z,652.50
2023-05-23T07:39:02.064Z,680.62
2023-05-23T07:40:02.341Z,691.88
2023-05-23T07:41:11.595Z,697.50
2023-05-23T07:42:03.569Z,742.50
2023-05-23T07:43:02.779Z,793.12
2023-05-23T07:44:02.902Z,826.88
2023-05-23T07:45:03.088Z,804.38
2023-05-23T07:46:03.271Z,759.38
2023-05-23T07:47:03.478Z,720.00
2023-05-23T07:48:03.579Z,686.25
2023-05-23T07:49:03.772Z,663.75
2023-05-23T07:50:03.921Z,669.38
2023-05-23T07:51:04.130Z,731.25
2023-05-23T07:52:04.271Z,832.50
2023-05-23T07:53:04.441Z,967.50
2023-05-23T07:54:04.602Z,1158.75
2023-05-23T07:55:04.809Z,3712.50
2023-05-23T07:56:04.966Z,3594.38
2023-05-23T07:57:05.135Z,1085.62
2023-05-23T07:58:05.289Z,1035.00
2023-05-23T07:59:05.479Z,1074.38
2023-05-23T08:00:05.663Z,1265.62
2023-05-23T08:01:05.822Z,1147.50
2023-05-23T08:02:06.013Z,1524.38
2023-05-23T08:03:06.188Z,1293.75
2023-05-23T08:04:06.387Z,1023.75
2023-05-23T08:05:06.469Z,1001.25
2023-05-23T08:06:06.648Z,1091.25
2023-05-23T08:07:06.819Z,2615.62
2023-05-23T08:08:07.020Z,1164.38
2023-05-23T08:09:07.193Z,1096.88
2023-05-23T08:10:07.375Z,1929.38
2023-05-23T08:11:07.542Z,1023.75
2023-05-23T08:12:07.688Z,1051.88
2023-05-23T08:13:07.863Z,1248.75
2023-05-23T08:14:08.009Z,1085.62
2023-05-23T08:15:08.197Z,1051.88
2023-05-23T08:16:08.482Z,1046.25
2023-05-23T08:17:08.772Z,1125.00
2023-05-23T08:18:08.923Z,1136.25
2023-05-23T08:19:09.034Z,1288.12
2023-05-23T08:20:09.099Z,1153.12
2023-05-23T08:21:09.256Z,1080.00
2023-05-23T08:22:09.500Z,973.12
2023-05-23T08:23:09.658Z,939.38
2023-05-23T08:24:09.799Z,900.00
2023-05-23T08:25:10.004Z,877.50
2023-05-23T08:26:10.185Z,804.38
2023-05-23T08:27:10.411Z,697.50
2023-05-23T08:28:10.516Z,641.25
2023-05-23T08:29:10.784Z,590.62
2023-05-23T08:30:10.885Z,573.75
2023-05-23T08:31:11.088Z,551.25
2023-05-23T08:32:11.369Z,562.50
2023-05-23T08:33:11.493Z,556.88
2023-05-23T08:34:11.589Z,545.62
2023-05-23T08:35:11.777Z,489.38
2023-05-23T08:36:11.925Z,466.88
2023-05-23T08:37:12.128Z,478.12
2023-05-23T08:38:12.262Z,483.75
2023-05-23T08:39:14.106Z,450.00
2023-05-23T08:40:12.603Z,461.25
2023-05-23T08:41:12.807Z,466.88
2023-05-23T08:42:13.003Z,556.88
2023-05-23T08:43:13.120Z,579.38
2023-05-23T08:44:13.336Z,618.75
2023-05-23T08:45:13.478Z,540.00
2023-05-23T08:46:13.725Z,500.62
2023-05-23T08:47:13.809Z,630.00
2023-05-23T08:48:13.977Z,585.00
2023-05-23T08:49:14.138Z,551.25
2023-05-23T08:50:14.328Z,562.50
2023-05-23T08:51:14.536Z,585.00
2023-05-23T08:52:14.668Z,585.00
2023-05-23T08:53:14.821Z,590.62
2023-05-23T08:54:15.035Z,523.12
2023-05-23T08:55:15.229Z,478.12
2023-05-23T08:56:15.385Z,736.88
2023-05-23T08:57:15.561Z,838.12
2023-05-23T08:58:15.811Z,579.38
2023-05-23T08:59:15.950Z,601.88
2023-05-23T09:00:16.082Z,579.38
2023-05-23T09:01:16.297Z,534.38
2023-05-23T09:02:16.421Z,365.62
2023-05-23T09:03:16.603Z,320.62
2023-05-23T09:04:16.834Z,309.38
2023-05-23T09:05:17.079Z,241.88
2023-05-23T09:06:17.150Z,275.62
2023-05-23T09:07:17.345Z,343.12
2023-05-23T09:08:17.528Z,354.38
2023-05-23T09:09:17.714Z,371.25
2023-05-23T09:10:17.886Z,444.38
2023-05-23T09:11:18.047Z,455.62
2023-05-23T09:12:18.182Z,427.50
2023-05-23T09:13:18.399Z,478.12
2023-05-23T09:14:18.569Z,562.50
2023-05-23T09:15:18.767Z,556.88
2023-05-23T09:16:18.986Z,478.12
2023-05-23T09:17:19.094Z,495.00
2023-05-23T09:18:19.280Z,523.12
2023-05-23T09:19:19.454Z,506.25
2023-05-23T09:20:19.624Z,579.38
2023-05-23T09:21:19.802Z,585.00
2023-05-23T09:22:19.951Z,466.88
2023-05-23T09:23:20.141Z,388.12
2023-05-23T09:24:20.526Z,410.62
2023-05-23T09:25:20.528Z,568.12
2023-05-23T09:26:20.693Z,675.00
2023-05-23T09:27:20.875Z,815.62
2023-05-23T09:28:21.025Z,793.12
2023-05-23T09:29:21.239Z,680.62
2023-05-23T09:30:21.373Z,646.88
2023-05-23T09:31:21.550Z,641.25
2023-05-23T09:32:21.799Z,596.25
2023-05-23T09:33:21.895Z,579.38
2023-05-23T09:34:22.072Z,534.38
2023-05-23T09:35:22.259Z,410.62
2023-05-23T09:36:22.474Z,315.00
2023-05-23T09:37:22.626Z,264.38
2023-05-23T09:38:22.808Z,298.12
2023-05-23T09:39:22.997Z,315.00
2023-05-23T09:40:23.185Z,365.62
2023-05-23T09:41:23.364Z,405.00
2023-05-23T09:42:23.571Z,320.62
2023-05-23T09:43:23.684Z,292.50
2023-05-23T09:44:23.861Z,247.50
2023-05-23T09:45:24.042Z,185.62
2023-05-23T09:46:24.356Z,151.88
2023-05-23T09:47:24.398Z,174.38
2023-05-23T09:48:24.580Z,241.88
2023-05-23T09:49:24.758Z,258.75
2023-05-23T09:50:24.917Z,236.25
2023-05-23T09:51:25.132Z,208.12
2023-05-23T09:52:25.288Z,196.88
2023-05-23T09:53:25.475Z,202.50
2023-05-23T09:54:25.678Z,225.00
2023-05-23T09:55:25.868Z,236.25
2023-05-23T09:56:26.010Z,253.12
2023-05-23T09:57:26.216Z,286.88
2023-05-23T09:58:26.376Z,281.25
2023-05-23T09:59:26.611Z,309.38
2023-05-23T10:00:26.739Z,286.88
2023-05-23T10:01:26.946Z,331.88
2023-05-23T10:02:27.119Z,382.50
2023-05-23T10:03:27.258Z,371.25
2023-05-23T10:04:27.493Z,382.50
2023-05-23T10:05:27.597Z,393.75
2023-05-23T10:06:27.784Z,388.12
2023-05-23T10:07:27.965Z,337.50
2023-05-23T10:08:28.156Z,275.62
2023-05-23T10:09:28.383Z,258.75
2023-05-23T10:10:28.524Z,236.25
2023-05-23T10:11:28.717Z,258.75
2023-05-23T10:12:28.920Z,275.62
2023-05-23T10:13:29.110Z,270.00
2023-05-23T10:14:29.321Z,281.25
2023-05-23T10:15:29.438Z,281.25
2023-05-23T10:16:29.694Z,303.75
2023-05-23T10:17:29.799Z,331.88
2023-05-23T10:18:30.941Z,427.50
2023-05-23T10:19:30.192Z,478.12
2023-05-23T10:20:30.330Z,444.38
2023-05-23T10:21:30.483Z,405.00
2023-05-23T10:22:30.676Z,365.62
2023-05-23T10:23:30.829Z,371.25
2023-05-23T10:24:31.027Z,343.12
2023-05-23T10:25:31.152Z,354.38
2023-05-23T10:26:31.349Z,399.38
2023-05-23T10:27:31.540Z,410.62
2023-05-23T10:28:31.790Z,450.00
2023-05-23T10:29:31.863Z,461.25
2023-05-23T10:30:32.070Z,517.50
2023-05-23T10:31:32.360Z,551.25
2023-05-23T10:32:32.426Z,596.25
2023-05-23T10:33:32.586Z,511.88
2023-05-23T10:34:32.754Z,455.62
2023-05-23T10:35:32.986Z,427.50
2023-05-23T10:36:33.096Z,450.00
2023-05-23T10:37:33.258Z,483.75
2023-05-23T10:38:33.449Z,506.25
2023-05-23T10:39:33.614Z,545.62
2023-05-23T10:40:33.851Z,562.50
2023-05-23T10:41:33.989Z,635.62
2023-05-23T10:42:34.208Z,646.88
2023-05-23T10:43:34.345Z,680.62
2023-05-23T10:44:34.519Z,624.38
2023-05-23T10:45:34.697Z,601.88
2023-05-23T10:46:34.992Z,585.00
2023-05-23T10:47:35.076Z,551.25
2023-05-23T10:48:35.305Z,528.75
2023-05-23T10:49:35.355Z,551.25
2023-05-23T10:50:35.565Z,590.62
2023-05-23T10:51:35.744Z,590.62
2023-05-23T10:52:35.886Z,562.50
2023-05-23T10:53:36.127Z,523.12
2023-05-23T10:54:36.286Z,511.88
2023-05-23T10:55:36.451Z,534.38
2023-05-23T10:56:36.634Z,585.00
2023-05-23T10:57:36.768Z,624.38
2023-05-23T10:58:36.977Z,686.25
2023-05-23T10:59:37.180Z,765.00
2023-05-23T11:00:37.350Z,731.25
2023-05-23T11:01:37.504Z,646.88
2023-05-23T11:02:37.746Z,601.88
2023-05-23T11:03:37.971Z,528.75
2023-05-23T11:04:38.054Z,466.88
2023-05-23T11:05:38.351Z,427.50
2023-05-23T11:06:38.417Z,466.88
2023-05-23T11:07:38.574Z,540.00
2023-05-23T11:08:47.051Z,736.88
2023-05-23T11:09:39.965Z,753.75
2023-05-23T11:10:39.406Z,725.62
2023-05-23T11:11:39.270Z,731.25
2023-05-23T11:12:39.412Z,714.38
2023-05-23T11:13:39.561Z,630.00
2023-05-23T11:14:39.789Z,646.88
2023-05-23T11:15:39.915Z,658.12
2023-05-23T11:16:40.152Z,725.62
2023-05-23T11:17:40.276Z,720.00
2023-05-23T11:18:40.489Z,714.38
2023-05-23T11:19:40.715Z,703.12
2023-05-23T11:20:41.204Z,697.50
2023-05-23T11:21:40.978Z,630.00
2023-05-23T11:22:41.175Z,551.25
2023-05-23T11:23:41.460Z,523.12
2023-05-23T11:24:41.533Z,489.38
2023-05-23T11:25:41.714Z,489.38
2023-05-23T11:26:41.854Z,540.00
2023-05-23T11:27:42.114Z,590.62
2023-05-23T11:28:42.225Z,585.00
2023-05-23T11:29:42.431Z,590.62
2023-05-23T11:30:42.876Z,556.88
2023-05-23T11:31:42.798Z,523.12
2023-05-23T11:32:43.038Z,540.00
2023-05-23T11:33:43.101Z,562.50
2023-05-23T11:34:43.314Z,534.38
2023-05-23T11:35:43.401Z,455.62
2023-05-23T11:36:43.599Z,410.62
2023-05-23T11:37:43.810Z,365.62
2023-05-23T11:38:43.938Z,292.50
2023-05-23T11:39:44.101Z,247.50
2023-05-23T11:40:44.736Z,213.75
2023-05-23T11:41:44.480Z,185.62
2023-05-23T11:42:44.618Z,168.75
2023-05-23T11:43:44.803Z,163.12
2023-05-23T11:44:44.998Z,157.50
2023-05-23T11:45:45.194Z,163.12
2023-05-23T11:46:45.357Z,163.12
2023-05-23T11:47:45.601Z,157.50
2023-05-23T11:48:45.714Z,163.12
2023-05-23T11:49:45.841Z,180.00
2023-05-23T11:50:46.036Z,196.88
2023-05-23T11:51:46.233Z,208.12
2023-05-23T11:52:46.417Z,213.75
2023-05-23T11:53:46.582Z,230.62
2023-05-23T11:54:46.754Z,236.25
2023-05-23T11:55:46.946Z,247.50
2023-05-23T11:56:47.153Z,275.62
2023-05-23T11:57:47.298Z,275.62
2023-05-23T11:58:47.504Z,258.75
2023-05-23T11:59:47.691Z,236.25
2023-05-23T12:00:47.859Z,225.00
2023-05-23T12:01:48.018Z,236.25
2023-05-23T12:02:48.246Z,241.88
2023-05-23T12:03:48.615Z,253.12
2023-05-23T12:04:48.658Z,253.12
2023-05-23T12:05:48.744Z,253.12
2023-05-23T12:06:48.925Z,264.38
2023-05-23T12:07:49.207Z,264.38
2023-05-23T12:08:49.316Z,264.38
2023-05-23T12:09:49.460Z,258.75
2023-05-23T12:10:49.670Z,236.25
2023-05-23T12:11:49.845Z,230.62
2023-05-23T12:12:49.981Z,253.12
2023-05-23T12:13:50.569Z,275.62
2023-05-23T12:14:50.360Z,270.00
2023-05-23T12:15:50.519Z,264.38
2023-05-23T12:16:50.671Z,292.50
2023-05-23T12:17:50.970Z,343.12
2023-05-23T12:18:51.095Z,382.50
2023-05-23T12:19:51.217Z,472.50
2023-05-23T12:20:51.395Z,466.88
2023-05-23T12:21:51.569Z,472.50
2023-05-23T12:22:51.762Z,511.88
2023-05-23T12:23:51.932Z,523.12
2023-05-23T12:24:52.121Z,523.12
2023-05-23T12:25:52.264Z,495.00
2023-05-23T12:26:52.474Z,495.00
2023-05-23T12:27:52.609Z,500.62
2023-05-23T12:28:52.812Z,523.12
2023-05-23T12:29:52.985Z,601.88
2023-05-23T12:30:53.143Z,590.62
2023-05-23T12:31:53.424Z,511.88
2023-05-23T12:32:53.551Z,410.62
2023-05-23T12:33:53.736Z,326.25
2023-05-23T12:34:53.875Z,303.75
2023-05-23T12:35:54.010Z,298.12
2023-05-23T12:37:02.848Z,270.00
2023-05-23T12:37:55.408Z,281.25
2023-05-23T12:38:54.575Z,320.62
2023-05-23T12:39:54.735Z,337.50
2023-05-23T12:40:54.937Z,315.00
2023-05-23T12:41:55.105Z,303.75
2023-05-23T12:42:55.321Z,264.38
2023-05-23T12:43:55.466Z,213.75
2023-05-23T12:44:55.611Z,174.38
2023-05-23T12:45:55.786Z,146.25
2023-05-23T12:46:55.990Z,146.25
2023-05-23T12:47:56.227Z,140.62